Portada
METAR-TAF:

METAR-TAF

Aeropuertos :

Aeropuerto Internacional Faa'a

Tahití, Polinesia Francesa

latitud: 17-33S, longitud: 149-37W, altitud: 2 m

Observación

El informe se hizo hace 26 minutos, a las 00:30 UTC
Viento 7 kt del oeste
Temperatura 31°C
Humedad 66%
Presión 1016 hPa
Visibilidad 10 km o más
Escasas nubes a una altura de 2300 ft
Nubes dispersas a una altura de 5000 ft

METAR: NTAA 290030Z 28007KT 9999 FEW023 SCT050 31/24 Q1016 NOSIG

Hora: 14:56 (00:56 UTC)

Pronóstico

El informe se hizo hace 1 hora y 56 minutos, a las 23:00 UTC
Pronóstico válido del 29 a las 00 UTC al 30 a las 06 UTC
Viento 5 kt con dirección variable
Visibilidad 10 km o más
Escasas nubes a una altura de 2300 ft
Nubes dispersas a una altura de 5000 ft

TAF: NTAA 282300Z 2900/3006 VRB05KT 9999 FEW023 SCT050

Observaciones y pronósticos meteorológicos de más de 4000 aeropuertos (mensajes METAR y TAF).

Los puntos amarillos y rojos representan las estaciones disponibles.

Ponga el ratón en el punto deseado para ver el nombre de la estación.

Haga clic para ver las observaciones y los pronósticos meteorológicos.

Para cambiar el mapa : haga clic en los botones verdes con una cruz de color negro para hacer un zoom, en el botón verde con un guión para alejar o en las flechas verdes para mapas adyacentes.


METAR-TAF: